Yahata Maru — JL6477 — position and weather

sailwx.info

Track history (hours):
 
Tides and Currents Weather Stations Pressure Air Temp Water Temp Dewpoint Dewpoint Depression Visibility Wind Speed Wind Dir Waves Ship Positions

Yahata Maru

Last reported at 2015-May-18 22:31 UTC. Time now 2015-May-22 13:07 UTC.
Position N 34°37' E 134°57'.

Length 149 m; draft 4.7 m.

Type: Other ship. MMSI: 431400594.

Date/timePositionNaut miles runAvg speedWind from/ knotsBaromVisibWave heightAir tempDewpointWater temp
2015-May-18 22:31N 34°37' E 134°57'9 9.7
2015-May-18 21:33N 34°36' E 135°08'9 8.9
2015-May-18 20:33N 34°40' E 135°18'4 4.4
2015-May-18 19:33N 34°43' E 135°21'0 0.0
2015-May-18 18:33N 34°43' E 135°21'0 0.0
2015-May-18 17:33N 34°43' E 135°21'0 0.0
2015-May-18 16:33N 34°43' E 135°21'0 0.0
2015-May-18 15:33N 34°43' E 135°21'0 0.0
2015-May-18 14:33N 34°43' E 135°21'0 0.0
2015-May-18 13:33N 34°43' E 135°21'0 0.0
2015-May-18 12:33N 34°43' E 135°21'0 0.0
2015-May-18 11:33N 34°43' E 135°21'2 2.1
2015-May-18 10:33N 34°41' E 135°21'6 6.1
2015-May-18 09:33N 34°36' E 135°25'1 0.7
2015-May-18 08:25N 34°35' E 135°26'2 2.6
2015-May-18 07:33N 34°36' E 135°23'4 4.2
2015-May-18 06:33N 34°34' E 135°19'6 6.5
2015-May-18 05:33N 34°29' E 135°14'6 6.2
2015-May-18 04:33N 34°25' E 135°08'9 8.2
2015-May-18 03:30N 34°19' E 135°01'7 7.4
2015-May-18 02:34N 34°12' E 134°60'9 9.5
2015-May-18 01:34N 34°03' E 135°01'229 5.5
2015-May-16 08:16N 35°01' E 139°30'7 8.8
2015-May-16 07:29N 35°05' E 139°37'8 8.7
2015-May-16 06:33N 35°10' E 139°44'8 7.8
2015-May-16 05:33N 35°18' E 139°44'9 9.0
2015-May-16 04:33N 35°27' E 139°43'1 0.9
2015-May-16 03:33N 35°28' E 139°43'0 0.0
2015-May-16 02:33N 35°28' E 139°43'0 0.0
2015-May-16 01:33N 35°28' E 139°43'0 0.0
2015-May-16 00:33N 35°28' E 139°43'0 0.0
2015-May-15 23:33N 35°28' E 139°43'5 5.1
2015-May-15 22:33N 35°28' E 139°49'9 8.8
2015-May-15 21:33N 35°32' E 139°59'7 6.7
2015-May-15 20:33N 35°33' E 140°07'0 0.0
2015-May-15 19:27N 35°33' E 140°07'0 0.0
2015-May-15 18:33N 35°33' E 140°07'0 0.0
2015-May-15 17:33N 35°33' E 140°07'0 0.0
2015-May-15 16:30N 35°33' E 140°07'0 0.0
2015-May-15 15:30N 35°33' E 140°07'0 0.0
2015-May-15 14:33N 35°33' E 140°07'0 0.0
2015-May-15 13:33N 35°33' E 140°07'0 0.0
2015-May-15 12:33N 35°33' E 140°07'0 0.0
2015-May-15 11:33N 35°33' E 140°07'0 0.0
2015-May-15 10:21N 35°33' E 140°07'0 0.0
2015-May-15 09:33N 35°33' E 140°07'0 0.0
2015-May-15 08:33N 35°33' E 140°07'0 0.2
2015-May-15 07:33N 35°33' E 140°07'5 3.9
2015-May-15 06:22N 35°33' E 140°01'0 0.0
2015-May-15 05:16N 35°33' E 140°01'0 0.1
2015-May-15 04:22N 35°33' E 140°01'0 0.0
2015-May-15 03:22N 35°33' E 140°01'0 0.1
2015-May-15 02:22N 35°33' E 140°01'0 0.1
2015-May-15 01:28N 35°33' E 140°01'0 0.1
2015-May-15 00:28N 35°33' E 140°01'0 0.0
2015-May-14 23:22N 35°33' E 140°01'0 0.0
2015-May-14 22:16N 35°33' E 140°01'0 0.0
2015-May-14 21:22N 35°33' E 140°01'0 0.0
2015-May-14 20:10N 35°33' E 140°01'0 0.0
2015-May-14 19:28N 35°33' E 140°01'0 0.0
2015-May-14 18:22N 35°33' E 140°01'0 0.1
2015-May-14 17:22N 35°33' E 140°01'0 0.1
2015-May-14 16:28N 35°33' E 140°01'0 0.1
2015-May-14 15:28N 35°33' E 140°01'4 4.2
2015-May-14 14:33N 35°31' E 139°56'9 9.4
2015-May-14 13:33N 35°27' E 139°46'3 2.6
2015-May-14 12:33N 35°28' E 139°43'2 1.7
2015-May-14 11:33N 35°27' E 139°44'7 6.6
2015-May-14 10:33N 35°20' E 139°45'8 8.3
2015-May-14 09:33N 35°12' E 139°47'7 6.8
2015-May-14 08:33N 35°06' E 139°45'7 7.0
2015-May-14 07:33N 35°01' E 139°39'9 8.9
2015-May-14 06:31N 34°56' E 139°29'  
Track history (hours):
 
Tides and Currents Weather Stations Pressure Air Temp Water Temp Dewpoint Dewpoint Depression Visibility Wind Speed Wind Dir Waves Ship Positions

Yahata Maru

Last reported at 2015-May-18 22:31 UTC. Time now 2015-May-22 13:07 UTC.
Position N 34°37' E 134°57'.

Length 149 m; draft 4.7 m.

Type: Other ship. MMSI: 431400594.

Date/timePositionNaut miles runAvg speedWind from/ knotsBaromVisibWave heightAir tempDewpointWater temp
2015-May-18 22:31N 34°37' E 134°57'9 9.7
2015-May-18 21:33N 34°36' E 135°08'9 8.9
2015-May-18 20:33N 34°40' E 135°18'4 4.4
2015-May-18 19:33N 34°43' E 135°21'0 0.0
2015-May-18 18:33N 34°43' E 135°21'0 0.0
2015-May-18 17:33N 34°43' E 135°21'0 0.0
2015-May-18 16:33N 34°43' E 135°21'0 0.0
2015-May-18 15:33N 34°43' E 135°21'0 0.0
2015-May-18 14:33N 34°43' E 135°21'0 0.0
2015-May-18 13:33N 34°43' E 135°21'0 0.0
2015-May-18 12:33N 34°43' E 135°21'0 0.0
2015-May-18 11:33N 34°43' E 135°21'2 2.1
2015-May-18 10:33N 34°41' E 135°21'6 6.1
2015-May-18 09:33N 34°36' E 135°25'1 0.7
2015-May-18 08:25N 34°35' E 135°26'2 2.6
2015-May-18 07:33N 34°36' E 135°23'4 4.2
2015-May-18 06:33N 34°34' E 135°19'6 6.5
2015-May-18 05:33N 34°29' E 135°14'6 6.2
2015-May-18 04:33N 34°25' E 135°08'9 8.2
2015-May-18 03:30N 34°19' E 135°01'7 7.4
2015-May-18 02:34N 34°12' E 134°60'9 9.5
2015-May-18 01:34N 34°03' E 135°01'229 5.5
2015-May-16 08:16N 35°01' E 139°30'7 8.8
2015-May-16 07:29N 35°05' E 139°37'8 8.7
2015-May-16 06:33N 35°10' E 139°44'8 7.8
2015-May-16 05:33N 35°18' E 139°44'9 9.0
2015-May-16 04:33N 35°27' E 139°43'1 0.9
2015-May-16 03:33N 35°28' E 139°43'0 0.0
2015-May-16 02:33N 35°28' E 139°43'0 0.0
2015-May-16 01:33N 35°28' E 139°43'0 0.0
2015-May-16 00:33N 35°28' E 139°43'0 0.0
2015-May-15 23:33N 35°28' E 139°43'5 5.1
2015-May-15 22:33N 35°28' E 139°49'9 8.8
2015-May-15 21:33N 35°32' E 139°59'7 6.7
2015-May-15 20:33N 35°33' E 140°07'0 0.0
2015-May-15 19:27N 35°33' E 140°07'0 0.0
2015-May-15 18:33N 35°33' E 140°07'0 0.0
2015-May-15 17:33N 35°33' E 140°07'0 0.0
2015-May-15 16:30N 35°33' E 140°07'0 0.0
2015-May-15 15:30N 35°33' E 140°07'0 0.0
2015-May-15 14:33N 35°33' E 140°07'0 0.0
2015-May-15 13:33N 35°33' E 140°07'0 0.0
2015-May-15 12:33N 35°33' E 140°07'0 0.0
2015-May-15 11:33N 35°33' E 140°07'0 0.0
2015-May-15 10:21N 35°33' E 140°07'0 0.0
2015-May-15 09:33N 35°33' E 140°07'0 0.0
2015-May-15 08:33N 35°33' E 140°07'0 0.2
2015-May-15 07:33N 35°33' E 140°07'5 3.9
2015-May-15 06:22N 35°33' E 140°01'0 0.0
2015-May-15 05:16N 35°33' E 140°01'0 0.1
2015-May-15 04:22N 35°33' E 140°01'0 0.0
2015-May-15 03:22N 35°33' E 140°01'0 0.1
2015-May-15 02:22N 35°33' E 140°01'0 0.1
2015-May-15 01:28N 35°33' E 140°01'0 0.1
2015-May-15 00:28N 35°33' E 140°01'0 0.0
2015-May-14 23:22N 35°33' E 140°01'0 0.0
2015-May-14 22:16N 35°33' E 140°01'0 0.0
2015-May-14 21:22N 35°33' E 140°01'0 0.0
2015-May-14 20:10N 35°33' E 140°01'0 0.0
2015-May-14 19:28N 35°33' E 140°01'0 0.0
2015-May-14 18:22N 35°33' E 140°01'0 0.1
2015-May-14 17:22N 35°33' E 140°01'0 0.1
2015-May-14 16:28N 35°33' E 140°01'0 0.1
2015-May-14 15:28N 35°33' E 140°01'4 4.2
2015-May-14 14:33N 35°31' E 139°56'9 9.4
2015-May-14 13:33N 35°27' E 139°46'3 2.6
2015-May-14 12:33N 35°28' E 139°43'2 1.7
2015-May-14 11:33N 35°27' E 139°44'7 6.6
2015-May-14 10:33N 35°20' E 139°45'8 8.3
2015-May-14 09:33N 35°12' E 139°47'7 6.8
2015-May-14 08:33N 35°06' E 139°45'7 7.0
2015-May-14 07:33N 35°01' E 139°39'9 8.9
2015-May-14 06:31N 34°56' E 139°29'  

Dump ship's entire track history